sensor_id;sensor_type;location;lat;lon;timestamp;pressure;altitude;pressure_sealevel;temperature;humidity
53659;BME280;41524;35.624;139.698;2023-04-19T00:00:12;100880.00;;;18.15;46.10
53659;BME280;41524;35.624;139.698;2023-04-19T00:05:10;100878.00;;;15.98;48.82
53659;BME280;41524;35.624;139.698;2023-04-19T00:10:12;100871.00;;;17.91;47.06
53659;BME280;41524;35.624;139.698;2023-04-19T00:15:11;100864.00;;;18.06;47.16
53659;BME280;41524;35.624;139.698;2023-04-19T00:20:11;100879.00;;;18.43;47.73
53659;BME280;41524;35.624;139.698;2023-04-19T00:25:11;100870.00;;;17.41;49.49
53659;BME280;41524;35.624;139.698;2023-04-19T00:30:12;100867.00;;;17.83;48.91
53659;BME280;41524;35.624;139.698;2023-04-19T00:35:22;100856.00;;;18.33;47.77
53659;BME280;41524;35.624;139.698;2023-04-19T00:40:11;100845.00;;;18.45;46.96
53659;BME280;41524;35.624;139.698;2023-04-19T00:45:11;100826.00;;;19.56;47.02
53659;BME280;41524;35.624;139.698;2023-04-19T00:50:16;100830.00;;;18.28;47.57
53659;BME280;41524;35.624;139.698;2023-04-19T00:55:16;100824.00;;;18.39;47.79
53659;BME280;41524;35.624;139.698;2023-04-19T01:00:12;100825.00;;;18.50;47.08
53659;BME280;41524;35.624;139.698;2023-04-19T01:05:18;100835.00;;;18.33;47.30
53659;BME280;41524;35.624;139.698;2023-04-19T01:10:11;100832.00;;;18.65;47.09
53659;BME280;41524;35.624;139.698;2023-04-19T01:15:15;100851.00;;;20.12;44.97
53659;BME280;41524;35.624;139.698;2023-04-19T01:20:12;100861.00;;;19.27;45.15
53659;BME280;41524;35.624;139.698;2023-04-19T01:25:11;100852.00;;;20.18;42.57
53659;BME280;41524;35.624;139.698;2023-04-19T01:30:11;100844.00;;;20.77;41.94
53659;BME280;41524;35.624;139.698;2023-04-19T01:35:10;100836.00;;;21.79;41.36
53659;BME280;41524;35.624;139.698;2023-04-19T01:40:18;100812.00;;;20.51;42.91
53659;BME280;41524;35.624;139.698;2023-04-19T01:45:21;100812.00;;;21.01;41.89
53659;BME280;41524;35.624;139.698;2023-04-19T01:50:11;100806.00;;;23.21;38.65
53659;BME280;41524;35.624;139.698;2023-04-19T01:55:11;100798.00;;;21.49;39.56
53659;BME280;41524;35.624;139.698;2023-04-19T02:00:22;100794.00;;;19.85;42.60
53659;BME280;41524;35.624;139.698;2023-04-19T02:05:11;100796.00;;;21.26;40.70
53659;BME280;41524;35.624;139.698;2023-04-19T02:10:17;100793.00;;;21.64;40.99
53659;BME280;41524;35.624;139.698;2023-04-19T02:15:11;100797.00;;;21.93;39.76
53659;BME280;41524;35.624;139.698;2023-04-19T02:20:16;100787.00;;;21.49;39.69
53659;BME280;41524;35.624;139.698;2023-04-19T02:25:17;100776.00;;;20.44;41.49
53659;BME280;41524;35.624;139.698;2023-04-19T02:30:11;100764.00;;;22.78;39.59
53659;BME280;41524;35.624;139.698;2023-04-19T02:35:16;100770.00;;;22.47;40.63
53659;BME280;41524;35.624;139.698;2023-04-19T02:40:11;100769.00;;;23.09;40.06
53659;BME280;41524;35.624;139.698;2023-04-19T02:45:11;100755.00;;;21.16;42.92
53659;BME280;41524;35.624;139.698;2023-04-19T02:50:10;100740.00;;;22.84;41.01
53659;BME280;41524;35.624;139.698;2023-04-19T02:55:11;100737.00;;;22.52;40.98
53659;BME280;41524;35.624;139.698;2023-04-19T03:00:11;100736.00;;;22.10;41.84
53659;BME280;41524;35.624;139.698;2023-04-19T03:05:15;100735.00;;;22.30;42.04
53659;BME280;41524;35.624;139.698;2023-04-19T03:10:18;100739.00;;;22.14;43.01
53659;BME280;41524;35.624;139.698;2023-04-19T03:15:16;100746.00;;;21.71;44.09
53659;BME280;41524;35.624;139.698;2023-04-19T03:20:12;100733.00;;;22.11;43.35
53659;BME280;41524;35.624;139.698;2023-04-19T03:25:11;100715.00;;;20.90;46.66
53659;BME280;41524;35.624;139.698;2023-04-19T03:30:13;100723.00;;;22.64;44.90
53659;BME280;41524;35.624;139.698;2023-04-19T03:35:11;100719.00;;;21.05;45.88
53659;BME280;41524;35.624;139.698;2023-04-19T03:40:12;100718.00;;;21.81;44.87
53659;BME280;41524;35.624;139.698;2023-04-19T03:45:12;100715.00;;;22.84;43.01
53659;BME280;41524;35.624;139.698;2023-04-19T03:50:11;100719.00;;;22.13;43.46
53659;BME280;41524;35.624;139.698;2023-04-19T03:55:11;100721.00;;;21.47;44.79
53659;BME280;41524;35.624;139.698;2023-04-19T04:00:12;100715.00;;;20.60;46.01
53659;BME280;41524;35.624;139.698;2023-04-19T04:05:10;100704.00;;;22.43;42.77
53659;BME280;41524;35.624;139.698;2023-04-19T04:10:13;100697.00;;;22.40;42.93
53659;BME280;41524;35.624;139.698;2023-04-19T04:15:12;100689.00;;;21.53;44.40
53659;BME280;41524;35.624;139.698;2023-04-19T04:20:12;100678.00;;;22.27;43.74
53659;BME280;41524;35.624;139.698;2023-04-19T04:25:15;100677.00;;;21.23;44.71
53659;BME280;41524;35.624;139.698;2023-04-19T04:30:15;100682.00;;;21.46;44.64
53659;BME280;41524;35.624;139.698;2023-04-19T04:35:16;100669.00;;;22.65;44.03
53659;BME280;41524;35.624;139.698;2023-04-19T04:40:12;100665.00;;;20.55;47.69
53659;BME280;41524;35.624;139.698;2023-04-19T04:45:16;100661.00;;;20.87;46.77
53659;BME280;41524;35.624;139.698;2023-04-19T04:50:11;100660.00;;;20.96;46.48
53659;BME280;41524;35.624;139.698;2023-04-19T04:55:11;100650.00;;;21.76;45.78
53659;BME280;41524;35.624;139.698;2023-04-19T05:00:13;100646.00;;;22.36;45.18
53659;BME280;41524;35.624;139.698;2023-04-19T05:05:11;100644.00;;;21.71;44.56
53659;BME280;41524;35.624;139.698;2023-04-19T05:10:15;100630.00;;;21.74;44.76
53659;BME280;41524;35.624;139.698;2023-04-19T05:15:17;100622.00;;;21.35;44.12
53659;BME280;41524;35.624;139.698;2023-04-19T05:20:11;100620.00;;;22.34;42.32
53659;BME280;41524;35.624;139.698;2023-04-19T05:25:11;100626.00;;;21.39;45.41
53659;BME280;41524;35.624;139.698;2023-04-19T05:30:10;100631.00;;;22.30;43.73
53659;BME280;41524;35.624;139.698;2023-04-19T05:35:16;100632.00;;;21.18;45.62
53659;BME280;41524;35.624;139.698;2023-04-19T05:40:12;100627.00;;;20.68;45.45
53659;BME280;41524;35.624;139.698;2023-04-19T05:45:11;100622.00;;;21.36;44.72
53659;BME280;41524;35.624;139.698;2023-04-19T05:50:11;100622.00;;;22.08;43.75
53659;BME280;41524;35.624;139.698;2023-04-19T05:55:11;100617.00;;;21.14;45.26
53659;BME280;41524;35.624;139.698;2023-04-19T06:00:12;100618.00;;;20.78;45.80
53659;BME280;41524;35.624;139.698;2023-04-19T06:05:16;100611.00;;;21.92;44.54
53659;BME280;41524;35.624;139.698;2023-04-19T06:10:12;100614.00;;;22.12;44.09
53659;BME280;41524;35.624;139.698;2023-04-19T06:15:14;100610.00;;;21.03;45.90
53659;BME280;41524;35.624;139.698;2023-04-19T06:20:14;100602.00;;;21.21;45.07
53659;BME280;41524;35.624;139.698;2023-04-19T06:25:16;100608.00;;;21.30;44.72
53659;BME280;41524;35.624;139.698;2023-04-19T06:30:12;100601.00;;;20.39;46.36
53659;BME280;41524;35.624;139.698;2023-04-19T06:35:11;100603.00;;;20.97;45.87
53659;BME280;41524;35.624;139.698;2023-04-19T06:40:11;100608.00;;;21.05;46.71
53659;BME280;41524;35.624;139.698;2023-04-19T06:45:16;100605.00;;;21.05;46.59
53659;BME280;41524;35.624;139.698;2023-04-19T06:50:18;100592.00;;;20.14;48.04
53659;BME280;41524;35.624;139.698;2023-04-19T06:55:12;100579.00;;;21.81;45.74
53659;BME280;41524;35.624;139.698;2023-04-19T07:00:12;100582.00;;;20.35;48.51
53659;BME280;41524;35.624;139.698;2023-04-19T07:05:10;100584.00;;;20.89;47.14
53659;BME280;41524;35.624;139.698;2023-04-19T07:10:11;100585.00;;;19.70;48.88
53659;BME280;41524;35.624;139.698;2023-04-19T07:15:19;100591.00;;;20.21;48.67
53659;BME280;41524;35.624;139.698;2023-04-19T07:20:11;100587.00;;;19.98;48.73
53659;BME280;41524;35.624;139.698;2023-04-19T07:25:19;100597.00;;;19.46;50.24
53659;BME280;41524;35.624;139.698;2023-04-19T07:30:12;100591.00;;;20.25;49.23
53659;BME280;41524;35.624;139.698;2023-04-19T07:35:11;100598.00;;;20.28;49.40
53659;BME280;41524;35.624;139.698;2023-04-19T07:40:12;100597.00;;;19.66;51.09
53659;BME280;41524;35.624;139.698;2023-04-19T07:45:11;100599.00;;;19.51;52.02
53659;BME280;41524;35.624;139.698;2023-04-19T07:50:11;100596.00;;;19.81;51.14
53659;BME280;41524;35.624;139.698;2023-04-19T07:55:10;100603.00;;;19.48;51.40
53659;BME280;41524;35.624;139.698;2023-04-19T08:00:17;100603.00;;;19.39;51.70
53659;BME280;41524;35.624;139.698;2023-04-19T08:05:11;100611.00;;;19.11;52.16
53659;BME280;41524;35.624;139.698;2023-04-19T08:10:16;100618.00;;;19.49;51.81
53659;BME280;41524;35.624;139.698;2023-04-19T08:15:12;100616.00;;;19.80;51.36
53659;BME280;41524;35.624;139.698;2023-04-19T08:20:17;100616.00;;;19.33;52.66
53659;BME280;41524;35.624;139.698;2023-04-19T08:25:10;100628.00;;;19.23;53.67
53659;BME280;41524;35.624;139.698;2023-04-19T08:30:18;100627.00;;;19.44;52.96
53659;BME280;41524;35.624;139.698;2023-04-19T08:35:16;100636.00;;;19.83;51.86
53659;BME280;41524;35.624;139.698;2023-04-19T08:40:14;100646.00;;;19.52;52.16
53659;BME280;41524;35.624;139.698;2023-04-19T08:45:11;100654.00;;;18.87;53.97
53659;BME280;41524;35.624;139.698;2023-04-19T08:50:11;100666.00;;;20.45;51.50
53659;BME280;41524;35.624;139.698;2023-04-19T08:55:16;100677.00;;;20.70;51.89
53659;BME280;41524;35.624;139.698;2023-04-19T09:00:18;100669.00;;;20.81;51.92
53659;BME280;41524;35.624;139.698;2023-04-19T09:05:12;100674.00;;;20.21;52.52
53659;BME280;41524;35.624;139.698;2023-04-19T09:10:12;100682.00;;;20.52;52.60
53659;BME280;41524;35.624;139.698;2023-04-19T09:15:16;100693.00;;;19.60;55.05
53659;BME280;41524;35.624;139.698;2023-04-19T09:20:12;100699.00;;;19.42;56.72
53659;BME280;41524;35.624;139.698;2023-04-19T09:25:27;100700.00;;;18.62;59.51
53659;BME280;41524;35.624;139.698;2023-04-19T09:30:25;100700.00;;;17.80;60.60
53659;BME280;41524;35.624;139.698;2023-04-19T09:35:12;100698.00;;;18.32;60.32
53659;BME280;41524;35.624;139.698;2023-04-19T09:40:24;100710.00;;;18.52;59.45
53659;BME280;41524;35.624;139.698;2023-04-19T09:45:11;100719.00;;;18.55;58.96
53659;BME280;41524;35.624;139.698;2023-04-19T09:50:12;100729.00;;;17.81;60.57
53659;BME280;41524;35.624;139.698;2023-04-19T09:55:28;100726.00;;;18.82;58.39
53659;BME280;41524;35.624;139.698;2023-04-19T10:00:16;100730.00;;;18.45;59.06
53659;BME280;41524;35.624;139.698;2023-04-19T10:05:11;100735.00;;;17.95;59.43
53659;BME280;41524;35.624;139.698;2023-04-19T10:10:17;100749.00;;;17.58;60.23
53659;BME280;41524;35.624;139.698;2023-04-19T10:15:19;100743.00;;;17.58;59.09
53659;BME280;41524;35.624;139.698;2023-04-19T10:20:12;100752.00;;;18.21;57.86
53659;BME280;41524;35.624;139.698;2023-04-19T10:25:28;100770.00;;;15.83;63.72
53659;BME280;41524;35.624;139.698;2023-04-19T10:30:26;100789.00;;;18.52;57.56
53659;BME280;41524;35.624;139.698;2023-04-19T10:35:23;100784.00;;;18.61;57.16
53659;BME280;41524;35.624;139.698;2023-04-19T10:40:55;100801.00;;;18.31;57.56
53659;BME280;41524;35.624;139.698;2023-04-19T10:45:34;100802.00;;;16.89;60.85
53659;BME280;41524;35.624;139.698;2023-04-19T10:50:10;100818.00;;;18.51;57.26
53659;BME280;41524;35.624;139.698;2023-04-19T10:55:15;100819.00;;;18.71;56.47
53659;BME280;41524;35.624;139.698;2023-04-19T11:00:27;100834.00;;;17.09;60.27
53659;BME280;41524;35.624;139.698;2023-04-19T11:05:10;100842.00;;;16.74;60.92
53659;BME280;41524;35.624;139.698;2023-04-19T11:10:28;100840.00;;;16.86;60.63
53659;BME280;41524;35.624;139.698;2023-04-19T11:15:16;100840.00;;;16.53;61.98
53659;BME280;41524;35.624;139.698;2023-04-19T11:20:16;100854.00;;;15.97;62.72
53659;BME280;41524;35.624;139.698;2023-04-19T11:25:13;100858.00;;;16.57;60.45
53659;BME280;41524;35.624;139.698;2023-04-19T11:30:17;100867.00;;;16.02;62.23
53659;BME280;41524;35.624;139.698;2023-04-19T11:35:22;100872.00;;;15.60;63.87
53659;BME280;41524;35.624;139.698;2023-04-19T11:40:22;100870.00;;;16.56;61.72
53659;BME280;41524;35.624;139.698;2023-04-19T11:45:24;100872.00;;;16.24;60.98
53659;BME280;41524;35.624;139.698;2023-04-19T11:50:34;100885.00;;;15.41;63.67
53659;BME280;41524;35.624;139.698;2023-04-19T11:55:32;100901.00;;;16.92;60.24
53659;BME280;41524;35.624;139.698;2023-04-19T12:00:17;100891.00;;;16.98;59.11
53659;BME280;41524;35.624;139.698;2023-04-19T12:05:14;100885.00;;;17.13;58.69
53659;BME280;41524;35.624;139.698;2023-04-19T12:10:15;100894.00;;;16.17;60.52
53659;BME280;41524;35.624;139.698;2023-04-19T12:15:17;100913.00;;;16.79;59.85
53659;BME280;41524;35.624;139.698;2023-04-19T12:20:35;100917.00;;;16.98;59.66
53659;BME280;41524;35.624;139.698;2023-04-19T12:25:12;100917.00;;;15.47;62.90
53659;BME280;41524;35.624;139.698;2023-04-19T12:30:11;100901.00;;;14.58;64.89
53659;BME280;41524;35.624;139.698;2023-04-19T12:35:15;100905.00;;;16.07;61.27
53659;BME280;41524;35.624;139.698;2023-04-19T12:40:12;100905.00;;;15.50;62.21
53659;BME280;41524;35.624;139.698;2023-04-19T12:45:12;100910.00;;;15.83;61.96
53659;BME280;41524;35.624;139.698;2023-04-19T12:50:19;100894.00;;;16.29;61.11
53659;BME280;41524;35.624;139.698;2023-04-19T12:55:16;100897.00;;;16.66;59.55
53659;BME280;41524;35.624;139.698;2023-04-19T13:00:11;100915.00;;;17.41;58.07
53659;BME280;41524;35.624;139.698;2023-04-19T13:05:11;100903.00;;;16.06;61.58
53659;BME280;41524;35.624;139.698;2023-04-19T13:10:11;100909.00;;;16.20;62.16
53659;BME280;41524;35.624;139.698;2023-04-19T13:15:12;100902.00;;;15.62;63.33
53659;BME280;41524;35.624;139.698;2023-04-19T13:20:11;100902.00;;;17.10;61.34
53659;BME280;41524;35.624;139.698;2023-04-19T13:25:17;100885.00;;;15.34;64.77
53659;BME280;41524;35.624;139.698;2023-04-19T13:30:11;100904.00;;;16.45;62.01
53659;BME280;41524;35.624;139.698;2023-04-19T13:35:16;100922.00;;;16.49;62.67
53659;BME280;41524;35.624;139.698;2023-04-19T13:40:16;100916.00;;;16.69;63.14
53659;BME280;41524;35.624;139.698;2023-04-19T13:45:11;100919.00;;;18.87;57.26
53659;BME280;41524;35.624;139.698;2023-04-19T13:50:11;100926.00;;;15.06;66.82
53659;BME280;41524;35.624;139.698;2023-04-19T14:00:16;100916.00;;;17.50;61.77
53659;BME280;41524;35.624;139.698;2023-04-19T14:05:12;100920.00;;;18.04;59.58
53659;BME280;41524;35.624;139.698;2023-04-19T14:10:16;100912.00;;;17.91;59.26
53659;BME280;41524;35.624;139.698;2023-04-19T14:15:16;100913.00;;;16.78;62.58
53659;BME280;41524;35.624;139.698;2023-04-19T14:20:13;100918.00;;;18.94;58.36
53659;BME280;41524;35.624;139.698;2023-04-19T14:25:17;100926.00;;;17.92;59.60
53659;BME280;41524;35.624;139.698;2023-04-19T14:30:11;100938.00;;;17.54;60.15
53659;BME280;41524;35.624;139.698;2023-04-19T14:35:11;100946.00;;;18.06;59.66
53659;BME280;41524;35.624;139.698;2023-04-19T14:40:16;100951.00;;;17.56;60.49
53659;BME280;41524;35.624;139.698;2023-04-19T14:45:12;100956.00;;;17.85;59.56
53659;BME280;41524;35.624;139.698;2023-04-19T14:50:16;100952.00;;;17.48;60.08
53659;BME280;41524;35.624;139.698;2023-04-19T14:55:16;100960.00;;;16.82;61.44
53659;BME280;41524;35.624;139.698;2023-04-19T15:00:16;100981.00;;;16.55;62.00
53659;BME280;41524;35.624;139.698;2023-04-19T15:05:13;100982.00;;;16.33;63.11
53659;BME280;41524;35.624;139.698;2023-04-19T15:10:11;100998.00;;;15.95;63.69
53659;BME280;41524;35.624;139.698;2023-04-19T15:15:12;101001.00;;;16.66;62.77
53659;BME280;41524;35.624;139.698;2023-04-19T15:20:13;100995.00;;;16.66;62.91
53659;BME280;41524;35.624;139.698;2023-04-19T15:25:17;100977.00;;;17.08;62.48
53659;BME280;41524;35.624;139.698;2023-04-19T15:30:12;100972.00;;;16.12;64.11
53659;BME280;41524;35.624;139.698;2023-04-19T15:35:19;100974.00;;;16.57;63.46
53659;BME280;41524;35.624;139.698;2023-04-19T15:40:12;100983.00;;;16.85;63.78
53659;BME280;41524;35.624;139.698;2023-04-19T15:45:16;100991.00;;;17.59;61.67
53659;BME280;41524;35.624;139.698;2023-04-19T15:50:12;100988.00;;;16.57;63.61
53659;BME280;41524;35.624;139.698;2023-04-19T15:55:10;101005.00;;;17.05;62.15
53659;BME280;41524;35.624;139.698;2023-04-19T16:00:11;100999.00;;;17.39;61.18
53659;BME280;41524;35.624;139.698;2023-04-19T16:05:13;101008.00;;;16.35;62.61
53659;BME280;41524;35.624;139.698;2023-04-19T16:10:12;100999.00;;;16.92;61.11
53659;BME280;41524;35.624;139.698;2023-04-19T16:15:12;100992.00;;;16.88;60.46
53659;BME280;41524;35.624;139.698;2023-04-19T16:20:13;100979.00;;;17.72;58.59
53659;BME280;41524;35.624;139.698;2023-04-19T16:25:12;100988.00;;;16.96;59.59
53659;BME280;41524;35.624;139.698;2023-04-19T16:30:16;100984.00;;;16.70;60.12
53659;BME280;41524;35.624;139.698;2023-04-19T16:35:11;100989.00;;;17.85;58.31
53659;BME280;41524;35.624;139.698;2023-04-19T16:40:16;100985.00;;;16.52;60.66
53659;BME280;41524;35.624;139.698;2023-04-19T16:45:10;100976.00;;;17.00;59.76
53659;BME280;41524;35.624;139.698;2023-04-19T16:50:10;100965.00;;;16.95;60.20
53659;BME280;41524;35.624;139.698;2023-04-19T16:55:12;100961.00;;;17.80;58.22
53659;BME280;41524;35.624;139.698;2023-04-19T17:00:11;100961.00;;;16.52;61.18
53659;BME280;41524;35.624;139.698;2023-04-19T17:05:11;100953.00;;;17.76;58.89
53659;BME280;41524;35.624;139.698;2023-04-19T17:10:11;100947.00;;;17.87;58.35
53659;BME280;41524;35.624;139.698;2023-04-19T17:15:14;100956.00;;;17.03;59.65
53659;BME280;41524;35.624;139.698;2023-04-19T17:20:11;100961.00;;;16.87;60.43
53659;BME280;41524;35.624;139.698;2023-04-19T17:25:17;100957.00;;;17.46;58.90
53659;BME280;41524;35.624;139.698;2023-04-19T17:30:11;100960.00;;;17.56;58.44
53659;BME280;41524;35.624;139.698;2023-04-19T17:35:15;100966.00;;;17.30;59.08
53659;BME280;41524;35.624;139.698;2023-04-19T17:40:12;100971.00;;;16.55;60.77
53659;BME280;41524;35.624;139.698;2023-04-19T17:45:16;100967.00;;;16.71;60.27
53659;BME280;41524;35.624;139.698;2023-04-19T17:50:12;100958.00;;;16.26;61.32
53659;BME280;41524;35.624;139.698;2023-04-19T17:55:14;100944.00;;;16.84;60.39
53659;BME280;41524;35.624;139.698;2023-04-19T18:00:13;100950.00;;;16.44;61.80
53659;BME280;41524;35.624;139.698;2023-04-19T18:05:10;100964.00;;;16.13;62.92
53659;BME280;41524;35.624;139.698;2023-04-19T18:10:12;100984.00;;;16.31;63.17
53659;BME280;41524;35.624;139.698;2023-04-19T18:15:15;100996.00;;;16.06;64.09
53659;BME280;41524;35.624;139.698;2023-04-19T18:20:17;101001.00;;;16.04;64.22
53659;BME280;41524;35.624;139.698;2023-04-19T18:25:12;101012.00;;;16.09;64.29
53659;BME280;41524;35.624;139.698;2023-04-19T18:30:16;101029.00;;;16.52;63.14
53659;BME280;41524;35.624;139.698;2023-04-19T18:35:11;101025.00;;;17.25;61.58
53659;BME280;41524;35.624;139.698;2023-04-19T18:40:11;101029.00;;;17.40;60.55
53659;BME280;41524;35.624;139.698;2023-04-19T18:45:11;101027.00;;;16.07;64.70
53659;BME280;41524;35.624;139.698;2023-04-19T18:50:11;101028.00;;;16.75;62.42
53659;BME280;41524;35.624;139.698;2023-04-19T18:55:10;101030.00;;;16.51;63.19
53659;BME280;41524;35.624;139.698;2023-04-19T19:00:17;101037.00;;;16.68;63.11
53659;BME280;41524;35.624;139.698;2023-04-19T19:05:10;101046.00;;;17.43;61.10
53659;BME280;41524;35.624;139.698;2023-04-19T19:10:12;101043.00;;;16.52;62.73
53659;BME280;41524;35.624;139.698;2023-04-19T19:15:11;101039.00;;;16.01;64.10
53659;BME280;41524;35.624;139.698;2023-04-19T19:20:15;101040.00;;;15.45;64.55
53659;BME280;41524;35.624;139.698;2023-04-19T19:25:14;101044.00;;;15.44;64.95
53659;BME280;41524;35.624;139.698;2023-04-19T19:30:11;101042.00;;;15.52;64.53
53659;BME280;41524;35.624;139.698;2023-04-19T19:35:10;101047.00;;;16.84;61.87
53659;BME280;41524;35.624;139.698;2023-04-19T19:40:13;101052.00;;;16.77;61.88
53659;BME280;41524;35.624;139.698;2023-04-19T19:45:11;101059.00;;;15.92;63.80
53659;BME280;41524;35.624;139.698;2023-04-19T19:50:16;101053.00;;;15.90;63.94
53659;BME280;41524;35.624;139.698;2023-04-19T19:55:11;101049.00;;;16.54;62.68
53659;BME280;41524;35.624;139.698;2023-04-19T20:00:12;101041.00;;;16.53;62.56
53659;BME280;41524;35.624;139.698;2023-04-19T20:05:11;101039.00;;;17.77;60.10
53659;BME280;41524;35.624;139.698;2023-04-19T20:10:11;101056.00;;;17.01;61.46
53659;BME280;41524;35.624;139.698;2023-04-19T20:15:12;101061.00;;;16.69;62.03
53659;BME280;41524;35.624;139.698;2023-04-19T20:20:12;101044.00;;;16.14;62.83
53659;BME280;41524;35.624;139.698;2023-04-19T20:25:13;101046.00;;;16.73;61.44
53659;BME280;41524;35.624;139.698;2023-04-19T20:30:11;101043.00;;;16.66;61.67
53659;BME280;41524;35.624;139.698;2023-04-19T20:35:13;101035.00;;;17.07;60.29
53659;BME280;41524;35.624;139.698;2023-04-19T20:40:14;101037.00;;;16.70;61.07
53659;BME280;41524;35.624;139.698;2023-04-19T20:45:11;101038.00;;;17.16;60.15
53659;BME280;41524;35.624;139.698;2023-04-19T20:50:11;101040.00;;;16.60;61.44
53659;BME280;41524;35.624;139.698;2023-04-19T20:55:11;101040.00;;;17.64;59.42
53659;BME280;41524;35.624;139.698;2023-04-19T21:00:19;101041.00;;;16.86;60.90
53659;BME280;41524;35.624;139.698;2023-04-19T21:05:12;101029.00;;;16.95;60.82
53659;BME280;41524;35.624;139.698;2023-04-19T21:10:16;101030.00;;;16.80;61.34
53659;BME280;41524;35.624;139.698;2023-04-19T21:15:11;101032.00;;;17.20;60.50
53659;BME280;41524;35.624;139.698;2023-04-19T21:20:15;101025.00;;;16.39;63.03
53659;BME280;41524;35.624;139.698;2023-04-19T21:25:14;101036.00;;;16.64;61.60
53659;BME280;41524;35.624;139.698;2023-04-19T21:30:16;101043.00;;;16.96;60.86
53659;BME280;41524;35.624;139.698;2023-04-19T21:35:11;101034.00;;;17.55;59.65
53659;BME280;41524;35.624;139.698;2023-04-19T21:40:16;101030.00;;;16.80;61.39
53659;BME280;41524;35.624;139.698;2023-04-19T21:45:15;101030.00;;;16.80;61.11
53659;BME280;41524;35.624;139.698;2023-04-19T21:50:18;101039.00;;;18.34;58.42
53659;BME280;41524;35.624;139.698;2023-04-19T21:55:11;101036.00;;;18.32;57.61
53659;BME280;41524;35.624;139.698;2023-04-19T22:00:22;101047.00;;;18.04;58.21
53659;BME280;41524;35.624;139.698;2023-04-19T22:05:10;101042.00;;;16.73;60.35
53659;BME280;41524;35.624;139.698;2023-04-19T22:10:15;101036.00;;;18.50;57.78
53659;BME280;41524;35.624;139.698;2023-04-19T22:15:11;101033.00;;;15.69;63.22
53659;BME280;41524;35.624;139.698;2023-04-19T22:20:15;101044.00;;;17.21;63.00
53659;BME280;41524;35.624;139.698;2023-04-19T22:25:18;101037.00;;;16.83;61.44
53659;BME280;41524;35.624;139.698;2023-04-19T22:30:16;101033.00;;;18.31;60.65
53659;BME280;41524;35.624;139.698;2023-04-19T22:35:15;101033.00;;;17.41;59.34
53659;BME280;41524;35.624;139.698;2023-04-19T22:40:16;101032.00;;;18.83;58.35
53659;BME280;41524;35.624;139.698;2023-04-19T22:45:16;101032.00;;;17.37;59.82
53659;BME280;41524;35.624;139.698;2023-04-19T22:50:10;101038.00;;;19.21;55.71
53659;BME280;41524;35.624;139.698;2023-04-19T22:55:17;101034.00;;;19.66;55.71
53659;BME280;41524;35.624;139.698;2023-04-19T23:00:16;101028.00;;;18.77;56.41
53659;BME280;41524;35.624;139.698;2023-04-19T23:05:16;101035.00;;;20.90;52.27
53659;BME280;41524;35.624;139.698;2023-04-19T23:10:12;101042.00;;;18.49;57.04
53659;BME280;41524;35.624;139.698;2023-04-19T23:15:16;101036.00;;;19.73;53.93
53659;BME280;41524;35.624;139.698;2023-04-19T23:20:12;101026.00;;;19.73;54.20
53659;BME280;41524;35.624;139.698;2023-04-19T23:25:15;101024.00;;;21.63;50.92
53659;BME280;41524;35.624;139.698;2023-04-19T23:30:10;101030.00;;;19.93;53.54
53659;BME280;41524;35.624;139.698;2023-04-19T23:35:18;101031.00;;;19.08;54.63
53659;BME280;41524;35.624;139.698;2023-04-19T23:40:17;101030.00;;;19.15;55.12
53659;BME280;41524;35.624;139.698;2023-04-19T23:45:10;101024.00;;;20.55;52.89
53659;BME280;41524;35.624;139.698;2023-04-19T23:50:15;101028.00;;;19.98;53.29
53659;BME280;41524;35.624;139.698;2023-04-19T23:55:16;101028.00;;;21.93;50.20
